Latest Weather Observations for Shark Bay Airport

IDW60801

Issued at 7:53 pm WST Friday 26 April 2019 (issued every 10 minutes, with the page automatically refreshed every 10 minutes)

About weather observations | Map of weather stations | Latest weather observations for WA | Other Formats
Station Details ID: 006105 Name: SHARK BAY AIRPORT Lat: -25.89 Lon: 113.58 Height: 33.8 m
Data from the previous 72 hours. | See also: Recent months at Shark Bay Airport
Date/Time
WST
Temp
°C
App
Temp
°C
Dew
Point
°C
Rel
Hum
%
Delta-T
°C
Wind Press
QNH
hPa
Press
MSL
hPa
Rain since
9am
mm
Dir  Spd
km/h
Gust
km/h
Spd
kts
Gust
kts
26/07:30pm 24.5 20.7 3.8 26 10.2 SE 13 15 7 8 1016.2 1016.1 0.0
26/07:00pm 26.1 22.2 3.4 23 11.2 SE 13 15 7 8 1015.7 1015.6 0.0
26/06:30pm 27.4 23.3 2.5 20 12.2 SE 13 15 7 8 1015.4 1015.3 0.0
26/06:00pm 30.3 26.2 2.5 17 13.9 SE 13 17 7 9 1015.2 1015.1 0.0
26/05:30pm 32.2 27.3 2.3 15 15.1 SE 17 22 9 12 1015.0 1014.9 0.0
26/05:00pm 33.5 28.5 1.3 13 16.1 E 17 22 9 12 1015.0 1014.9 0.0
26/04:30pm 33.9 28.4 1.6 13 16.3 E 20 28 11 15 1015.0 1014.9 0.0
26/04:00pm 34.3 28.8 2.0 13 16.4 E 20 30 11 16 1014.9 1014.8 0.0
26/03:30pm 34.9 29.7 3.5 14 16.4 E 20 32 11 17 1014.8 1014.7 0.0
26/03:00pm 34.9 29.1 2.4 13 16.7 E 22 32 12 17 1014.8 1014.7 0.0
26/02:30pm 35.1 29.9 3.6 14 16.5 ENE 20 33 11 18 1014.8 1014.7 0.0
26/02:00pm 34.6 28.6 3.2 14 16.3 ENE 24 30 13 16 1015.0 1014.9 0.0
26/01:30pm 34.3 28.2 3.0 14 16.2 E 24 37 13 20 1015.2 1015.1 0.0
26/01:00pm 34.0 27.9 2.8 14 16.0 E 24 39 13 21 1015.7 1015.6 0.0
26/12:30pm 33.9 28.0 3.7 15 15.7 ENE 24 35 13 19 1016.1 1016.0 0.0
26/12:00pm 33.2 26.6 4.0 16 15.2 ENE 28 39 15 21 1016.5 1016.4 0.0
26/11:30am 32.0 25.5 4.7 18 14.3 E 28 37 15 20 1016.9 1016.8 0.0
26/11:00am 30.8 24.3 4.5 19 13.6 ENE 28 37 15 20 1017.3 1017.2 0.0
26/10:30am 29.8 23.0 5.1 21 12.9 ENE 30 44 16 24 1017.5 1017.4 0.0
26/10:00am 29.0 22.3 5.8 23 12.2 ENE 30 39 16 21 1017.7 1017.6 0.0
26/09:30am 28.0 22.1 7.3 27 11.1 E 28 39 15 21 1017.8 1017.7 0.0
26/09:00am 26.8 20.7 6.8 28 10.5 E 28 43 15 23 1017.8 1017.7 0.0
26/08:39am 26.2 20.1 6.8 29 10.2 E 28 46 15 25 1017.6 1017.5 0.0
26/08:30am 25.9 20.3 7.0 30 9.9 E 26 39 14 21 1017.5 1017.4 0.0
26/08:00am 24.0 20.3 9.6 40 7.8 E 19 26 10 14 1017.5 1017.4 0.0
26/07:30am 21.3 18.4 11.1 52 5.6 E 17 20 9 11 1017.3 1017.2 0.0
26/07:00am 18.6 15.8 11.2 62 4.0 E 17 19 9 10 1017.0 1016.9 0.0
26/06:30am 18.7 15.9 11.3 62 4.0 E 17 19 9 10 1016.8 1016.7 0.0
26/06:00am 18.8 15.9 11.1 61 4.2 E 17 20 9 11 1016.7 1016.6 0.0
26/05:30am 18.1 15.1 10.7 62 4.0 E 17 19 9 10 1016.4 1016.3 0.0
26/05:00am 19.0 16.0 10.6 58 4.5 E 17 20 9 11 1016.4 1016.3 0.0
26/04:30am 19.8 16.4 10.5 55 5.0 ESE 19 22 10 12 1016.2 1016.1 0.0
26/04:00am 19.9 16.3 10.0 53 5.3 ESE 19 24 10 13 1016.0 1015.9 0.0
26/03:30am 20.0 16.3 9.6 51 5.5 ESE 19 24 10 13 1016.0 1015.9 0.0
26/03:00am 20.0 16.3 9.6 51 5.5 ESE 19 24 10 13 1016.0 1015.9 0.0
26/02:30am 20.5 16.7 9.1 48 6.0 ESE 19 22 10 12 1016.1 1016.0 0.0
26/02:00am 21.3 17.6 9.5 47 6.3 ESE 19 22 10 12 1016.1 1016.0 0.0
26/01:30am 21.3 17.5 9.9 48 6.2 ESE 20 24 11 13 1016.2 1016.1 0.0
26/01:00am 21.5 17.6 9.4 46 6.5 ESE 20 22 11 12 1016.3 1016.2 0.0
26/12:30am 21.7 17.6 7.9 41 7.2 ESE 19 22 10 12 1016.3 1016.2 0.0
26/12:00am 23.0 18.7 7.9 38 7.9 ESE 20 26 11 14 1016.3 1016.2 0.0
 
Date/Time
WST
Temp
°C
App
Temp
°C
Dew
Point
°C
Rel
Hum
%
Delta-T
°C
Wind Press
QNH
hPa
Press
MSL
hPa
Rain since
9am
mm
Dir  Spd
km/h
Gust
km/h
Spd
kts
Gust
kts
25/11:30pm 23.3 19.2 7.8 37 8.2 ESE 19 22 10 12 1016.4 1016.3 0.0
25/11:00pm 22.1 18.5 8.2 41 7.3 ESE 17 20 9 11 1016.7 1016.6 0.0
25/10:30pm 22.2 19.0 8.3 41 7.3 SE 15 20 8 11 1016.9 1016.8 0.0
25/10:00pm 22.0 19.2 8.5 42 7.1 SE 13 15 7 8 1017.0 1016.9 0.0
25/09:30pm 23.3 20.2 10.4 44 7.1 SSE 17 24 9 13 1016.9 1016.8 0.0
25/09:00pm 24.5 20.9 10.4 41 7.8 SSE 20 28 11 15 1016.8 1016.7 0.0
25/08:30pm 25.0 20.8 9.7 38 8.4 SSE 22 32 12 17 1016.6 1016.5 0.0
25/08:00pm 25.3 21.4 9.6 37 8.6 SSE 20 28 11 15 1016.5 1016.4 0.0
25/07:30pm 26.0 21.1 8.5 33 9.5 SSE 24 33 13 18 1016.2 1016.1 0.0
25/07:00pm 26.7 21.9 7.2 29 10.3 SSE 22 30 12 16 1016.0 1015.9 0.0
25/06:30pm 28.0 23.8 7.3 27 11.1 SSE 19 28 10 15 1015.7 1015.6 0.0
25/06:00pm 30.7 26.0 -1.9 12 15.1 SE 13 15 7 8 1015.1 1015.0 0.0
25/05:30pm 33.1 27.3 -1.3 11 16.4 ESE 19 24 10 13 1014.9 1014.8 0.0
25/05:00pm 34.3 28.5 -1.7 10 17.2 ESE 19 22 10 12 1014.9 1014.8 0.0
25/04:30pm 35.0 29.3 -1.1 10 17.5 ESE 19 24 10 13 1014.7 1014.6 0.0
25/04:00pm 35.4 29.7 -0.8 10 17.7 ESE 19 26 10 14 1014.7 1014.6 0.0
25/03:30pm 35.8 30.5 -0.5 10 17.9 ESE 17 26 9 14 1014.7 1014.6 0.0
25/03:00pm 36.3 31.1 -0.2 10 18.1 ESE 17 26 9 14 1014.8 1014.7 0.0
25/02:30pm 35.7 30.8 -0.6 10 17.9 E 15 22 8 12 1014.9 1014.8 0.0
25/02:00pm 35.5 29.8 -0.8 10 17.8 NE 19 24 10 13 1015.0 1014.9 0.0
25/01:30pm 35.2 29.7 0.3 11 17.4 ENE 19 24 10 13 1015.4 1015.3 0.0
25/01:00pm 34.4 28.6 -0.3 11 17.0 ENE 20 30 11 16 1015.7 1015.6 0.0
25/12:30pm 33.8 27.3 0.5 12 16.5 ENE 24 32 13 17 1016.1 1016.0 0.0
25/12:00pm 32.8 26.8 0.8 13 15.8 E 22 33 12 18 1016.5 1016.4 0.0
25/11:30am 31.4 24.6 0.7 14 15.0 ENE 26 35 14 19 1017.0 1016.9 0.0
25/11:00am 31.3 25.0 1.6 15 14.7 ENE 24 43 13 23 1017.3 1017.2 0.0
25/10:30am 29.3 21.9 1.7 17 13.5 ENE 30 39 16 21 1017.6 1017.5 0.0
25/10:00am 28.8 22.3 2.9 19 12.9 E 26 35 14 19 1017.7 1017.6 0.0
25/09:30am 27.6 21.5 2.6 20 12.3 E 24 35 13 19 1017.7 1017.6 0.0
25/09:00am 26.7 20.8 3.9 23 11.4 E 24 32 13 17 1017.8 1017.7 0.0
25/08:30am 25.2 20.1 5.9 29 9.9 E 22 28 12 15 1017.7 1017.6 0.0
25/08:00am 23.3 18.7 6.6 34 8.6 ESE 20 26 11 14 1017.7 1017.6 0.0
25/07:30am 20.5 16.4 7.8 44 6.6 ESE 19 22 10 12 1017.8 1017.7 0.0
25/07:00am 18.6 14.5 7.7 49 5.5 ESE 19 22 10 12 1017.5 1017.4 0.0
25/06:30am 18.5 14.3 7.6 49 5.5 ESE 19 22 10 12 1017.4 1017.3 0.0
25/06:00am 18.5 14.6 7.3 48 5.7 ESE 17 20 9 11 1017.1 1017.0 0.0
25/05:30am 19.3 15.0 7.1 45 6.2 ESE 19 24 10 13 1016.8 1016.7 0.0
25/05:00am 19.6 15.7 7.0 44 6.4 ESE 17 24 9 13 1016.6 1016.5 0.0
25/04:30am 19.9 15.9 6.6 42 6.7 ESE 17 20 9 11 1016.6 1016.5 0.0
25/04:00am 20.2 16.2 6.5 41 6.9 ESE 17 22 9 12 1016.5 1016.4 0.0
25/03:30am 20.8 16.5 7.1 41 7.0 ESE 19 24 10 13 1016.4 1016.3 0.0
25/03:00am 20.7 16.8 7.0 41 7.0 ESE 17 20 9 11 1016.5 1016.4 0.0
25/02:30am 21.2 17.2 6.7 39 7.4 ESE 17 20 9 11 1016.6 1016.5 0.0
25/02:00am 21.1 16.9 7.3 41 7.1 ESE 19 22 10 12 1016.7 1016.6 0.0
25/01:30am 21.4 17.1 6.9 39 7.4 ESE 19 24 10 13 1016.8 1016.7 0.0
25/01:00am 21.6 17.8 7.4 40 7.3 ESE 17 20 9 11 1016.8 1016.7 0.0
25/12:30am 21.8 18.2 8.3 42 7.1 ESE 17 24 9 13 1016.9 1016.8 0.0
25/12:00am 22.0 18.2 8.9 43 7.0 ESE 19 22 10 12 1017.0 1016.9 0.0
 
Date/Time
WST
Temp
°C
App
Temp
°C
Dew
Point
°C
Rel
Hum
%
Delta-T
°C
Wind Press
QNH
hPa
Press
MSL
hPa
Rain since
9am
mm
Dir  Spd
km/h
Gust
km/h
Spd
kts
Gust
kts
24/11:30pm 22.3 18.6 9.5 44 6.9 ESE 19 24 10 13 1016.9 1016.8 0.0
24/11:00pm 23.0 19.3 9.4 42 7.3 ESE 19 24 10 13 1017.1 1017.0 0.0
24/10:30pm 23.2 19.7 10.3 44 7.1 ESE 19 24 10 13 1017.1 1017.0 0.0
24/10:00pm 21.3 19.4 13.0 59 4.7 SE 15 17 8 9 1017.2 1017.1 0.0
24/09:30pm 21.2 20.5 15.5 70 3.4 SE 13 15 7 8 1017.3 1017.2 0.0
24/09:00pm 21.7 21.2 15.8 69 3.5 SSE 13 17 7 9 1017.1 1017.0 0.0
24/08:30pm 22.6 21.3 15.7 65 4.1 SSE 17 22 9 12 1017.1 1017.0 0.0
24/08:00pm 23.0 21.4 15.1 61 4.7 S 17 20 9 11 1016.9 1016.8 0.0
24/07:30pm 23.3 21.0 14.0 56 5.5 S 19 22 10 12 1016.6 1016.5 0.0
24/07:00pm 24.1 22.0 13.6 52 6.1 S 17 22 9 12 1016.4 1016.3 0.0
24/06:30pm 25.6 22.6 10.6 39 8.4 S 17 20 9 11 1016.4 1016.3 0.0
24/06:00pm 28.2 24.3 6.9 26 11.3 S 17 26 9 14 1016.1 1016.0 0.0
24/05:30pm 30.8 26.7 4.5 19 13.6 S 15 22 8 12 1015.7 1015.6 0.0
24/05:00pm 33.6 28.8 0.3 12 16.4 SE 15 20 8 11 1015.4 1015.3 0.0
24/04:30pm 34.2 29.1 0.8 12 16.6 ESE 17 28 9 15 1015.3 1015.2 0.0
24/04:00pm 33.9 28.2 0.5 12 16.5 SE 20 28 11 15 1015.3 1015.2 0.0
24/03:30pm 34.1 28.0 0.7 12 16.6 ESE 22 30 12 16 1015.4 1015.3 0.0
24/03:00pm 34.1 28.4 0.7 12 16.6 ESE 20 26 11 14 1015.5 1015.4 0.0
24/02:30pm 33.5 27.5 1.3 13 16.1 ESE 22 30 12 16 1015.6 1015.5 0.0
24/02:00pm 33.3 27.7 1.2 13 16.0 SE 20 35 11 19 1015.8 1015.7 0.0
24/01:30pm 32.7 27.2 1.7 14 15.5 E 20 28 11 15 1016.2 1016.1 0.0
24/01:00pm 32.4 27.0 2.5 15 15.1 ESE 20 32 11 17 1016.6 1016.5 0.0
24/12:30pm 30.9 25.8 3.0 17 14.1 ESE 19 24 10 13 1017.1 1017.0 0.0
24/12:00pm 30.4 25.3 4.2 19 13.5 ESE 20 30 11 16 1017.7 1017.6 0.0
24/11:30am 29.9 24.9 4.5 20 13.1 E 20 28 11 15 1018.1 1018.0 0.0
24/11:00am 28.6 23.8 5.5 23 12.0 E 20 32 11 17 1018.6 1018.5 0.0
24/10:30am 27.3 22.1 5.6 25 11.2 ESE 22 28 12 15 1019.0 1018.9 0.0
24/10:00am 26.2 20.9 5.2 26 10.7 ESE 22 32 12 17 1019.3 1019.2 0.0
24/09:30am 25.5 20.1 6.2 29 10.0 ESE 24 32 13 17 1019.3 1019.2 0.0
24/09:00am 24.7 19.3 6.4 31 9.4 ESE 24 32 13 17 1019.3 1019.2 0.0
24/08:30am 23.2 18.5 7.7 37 8.1 ESE 22 32 12 17 1019.4 1019.3 0.0
24/08:00am 21.3 17.9 9.2 46 6.4 ESE 17 24 9 13 1019.3 1019.2 0.0
24/07:30am 19.0 16.4 9.5 54 5.0 SE 13 19 7 10 1019.0 1018.9 0.0
24/07:00am 17.5 14.4 8.9 57 4.4 SE 15 19 8 10 1018.8 1018.7 0.0
24/06:30am 17.2 14.0 8.6 57 4.4 SE 15 19 8 10 1018.5 1018.4 0.0
24/06:00am 17.5 14.0 8.6 56 4.6 SE 17 20 9 11 1018.4 1018.3 0.0
24/05:30am 17.8 14.3 8.6 55 4.7 SE 17 24 9 13 1018.3 1018.2 0.0
24/05:00am 18.1 14.3 9.2 56 4.6 ESE 19 24 10 13 1018.0 1017.9 0.0
24/04:30am 18.7 14.6 8.7 52 5.2 ESE 20 24 11 13 1017.8 1017.7 0.0
24/04:00am 18.9 14.9 8.3 50 5.5 ESE 19 24 10 13 1017.9 1017.8 0.0
24/03:30am 18.7 15.1 8.4 51 5.3 ESE 17 22 9 12 1018.0 1017.9 0.0
24/03:00am 18.9 14.8 8.0 49 5.6 SE 19 24 10 13 1018.1 1018.0 0.0
24/02:30am 17.7 14.1 8.3 54 4.8 SE 17 20 9 11 1018.2 1018.1 0.0
24/02:00am 15.8 13.7 9.7 67 3.2 SE 11 15 6 8 1018.3 1018.2 0.0
24/01:30am 16.4 13.5 9.8 65 3.5 SE 15 17 8 9 1018.3 1018.2 0.0
24/01:00am 16.4 13.9 9.8 65 3.4 SE 13 15 7 8 1018.4 1018.3 0.0
24/12:30am 18.7 15.8 9.8 56 4.7 SE 15 19 8 10 1018.3 1018.2 0.0
24/12:00am 18.5 15.5 10.6 60 4.2 SE 17 19 9 10 1018.4 1018.3 0.0
 
Date/Time
WST
Temp
°C
App
Temp
°C
Dew
Point
°C
Rel
Hum
%
Delta-T
°C
Wind Press
QNH
hPa
Press
MSL
hPa
Rain since
9am
mm
Dir  Spd
km/h
Gust
km/h
Spd
kts
Gust
kts
23/11:30pm 18.4 16.3 12.4 68 3.3 SE 15 17 8 9 1018.6 1018.5 0.0
23/11:00pm 19.0 17.4 13.8 72 3.0 SSE 15 20 8 11 1018.6 1018.5 0.0
23/10:30pm 19.8 18.2 15.0 74 2.8 SSE 17 20 9 11 1018.8 1018.7 0.0
23/10:00pm 20.2 18.7 15.2 73 2.9 SSE 17 20 9 11 1018.9 1018.8 0.0
23/09:30pm 20.7 18.7 15.5 72 3.1 SSE 20 28 11 15 1018.9 1018.8 0.0
23/09:00pm 21.3 18.9 15.4 69 3.5 S 22 32 12 17 1018.8 1018.7 0.0
23/08:30pm 21.3 18.6 14.7 66 3.9 S 22 32 12 17 1018.7 1018.6 0.0
23/08:00pm 21.5 18.9 13.9 62 4.4 S 20 26 11 14 1018.4 1018.3 0.0

Other formats

Comma delimited format used in spreadsheet applications
http://www.bom.gov.au/fwo/IDW60801/IDW60801.95402.axf

JavaScript Object Notation format (JSON) in row-major order
http://www.bom.gov.au/fwo/IDW60801/IDW60801.95402.json

Data quality

Most of these data are generated automatically and are frequently updated. Quality checks on data are not normally performed. It is possible for incorrect values to appear. Refer to information at About Latest Weather Observations and please check the disclaimer before using these data.